Time;durP1;ratioP1;P1;durP2;ratioP2;P2;SDS_P1;SDS_P2;PMS_P1;PMS_P2;Temp;Humidity;BMP_temperature;BMP_pressure;BME280_temperature;BME280_humidity;BME280_pressure;Samples;Min_cycle;Max_cycle;Signal;HPM_P1;HPM_P2
2023/10/27 00:02:10;;;;;;;;;;;;;;;10.76;32.39;99960.09;5071096;28;19919;-65
2023/10/27 00:04:35;;;;;;;;;;;;;;;10.79;33.80;99965.88;5072810;28;19935;-64
2023/10/27 00:07:00;;;;;;;;;;;;;;;10.79;33.21;99962.34;5071861;28;20422;-65
2023/10/27 00:09:26;;;;;;;;;;;;;;;10.78;32.52;99969.59;5083632;28;20299;-69
2023/10/27 00:11:51;;;;;;;;;;;;;;;10.79;33.31;99973.09;5092717;28;19981;-68
2023/10/27 00:14:16;;;;;;;;;;;;;;;10.81;33.07;99968.38;5093063;28;19912;-69
2023/10/27 00:16:41;;;;;;;;;;;;;;;10.81;32.60;99969.19;5093121;28;19951;-68
2023/10/27 00:19:07;;;;;;;;;;;;;;;10.82;33.15;99970.00;5093464;28;20379;-68
2023/10/27 00:21:32;;;;;;;;;;;;;;;10.83;33.00;99968.97;5093755;28;19916;-68
2023/10/27 00:23:57;;;;;;;;;;;;;;;10.80;33.51;99977.44;5092969;28;19964;-68
2023/10/27 00:26:22;;;;;;;;;;;;;;;10.79;32.46;99973.94;5092712;28;19960;-69
2023/10/27 00:28:48;;;;;;;;;;;;;;;10.77;32.65;99975.16;5093503;28;20355;-68
2023/10/27 00:31:13;;;;;;;;;;;;;;;10.76;33.00;99971.66;5093049;28;19912;-69
2023/10/27 00:33:39;;;;;;;;;;;;;;;10.77;33.35;99970.63;5104002;28;20202;-69
2023/10/27 00:36:04;;;;;;;;;;;;;;;10.75;32.50;99969.19;5100599;28;19979;-67
2023/10/27 00:38:30;;;;;;;;;;;;;;;10.73;32.07;99977.44;5093165;28;19912;-67
2023/10/27 00:40:55;;;;;;;;;;;;;;;10.72;32.13;99959.69;5093313;28;20353;-67
2023/10/27 00:43:21;;;;;;;;;;;;;;;10.69;31.96;99967.31;5093004;28;19912;-67
2023/10/27 00:45:50;;;;;;;;;;;;;;;10.67;32.24;99972.09;5092990;28;19920;-66
2023/10/27 00:48:20;;;;;;;;;;;;;;;10.59;31.38;99967.75;5093089;28;19924;-67
2023/10/27 00:50:45;;;;;;;;;;;;;;;10.56;31.77;99971.66;5098554;28;19911;-67
2023/10/27 00:53:11;;;;;;;;;;;;;;;10.59;31.99;99967.75;5113284;28;19912;-67
2023/10/27 00:55:39;;;;;;;;;;;;;;;10.58;31.92;99966.91;5114504;28;19915;-67
2023/10/27 00:58:06;;;;;;;;;;;;;;;10.57;32.91;99970.63;5116874;28;19912;-67
2023/10/27 01:00:31;;;;;;;;;;;;;;;10.57;32.75;99965.25;5104994;28;19950;-67
2023/10/27 01:02:56;;;;;;;;;;;;;;;10.57;32.25;99970.63;5096749;28;19959;-67
2023/10/27 01:05:22;;;;;;;;;;;;;;;10.57;32.20;99962.56;5096811;28;19916;-67
2023/10/27 01:07:47;;;;;;;;;;;;;;;10.56;32.02;99960.09;5096978;28;20006;-67
2023/10/27 01:10:12;;;;;;;;;;;;;;;10.56;33.02;99968.16;5096581;28;19927;-67
2023/10/27 01:12:38;;;;;;;;;;;;;;;10.53;32.82;99963.19;5096723;28;20010;-66
2023/10/27 01:15:03;;;;;;;;;;;;;;;10.58;33.36;99952.66;5096588;28;19916;-67
2023/10/27 01:17:28;;;;;;;;;;;;;;;10.57;32.05;99957.19;5078494;28;19913;-66
2023/10/27 01:19:54;;;;;;;;;;;;;;;10.58;32.38;99947.28;5096528;28;19912;-66
2023/10/27 01:22:19;;;;;;;;;;;;;;;10.58;32.91;99952.66;5096300;28;19912;-67
2023/10/27 01:24:44;;;;;;;;;;;;;;;10.56;33.14;99947.47;5096238;28;19919;-68
2023/10/27 01:27:10;;;;;;;;;;;;;;;10.54;32.56;99946.88;5096152;28;20003;-67
2023/10/27 01:29:35;;;;;;;;;;;;;;;10.57;32.49;99940.28;5104403;28;19912;-67
2023/10/27 01:32:00;;;;;;;;;;;;;;;10.59;33.77;99939.03;5101469;28;19947;-67
2023/10/27 01:34:25;;;;;;;;;;;;;;;10.54;31.70;99929.94;5096509;28;19970;-67
2023/10/27 01:36:51;;;;;;;;;;;;;;;10.55;31.84;99936.94;5096086;28;20369;-67
2023/10/27 01:39:16;;;;;;;;;;;;;;;10.55;32.98;99934.25;5096101;28;19923;-67
2023/10/27 01:41:42;;;;;;;;;;;;;;;10.54;31.95;99935.31;5095877;28;19918;-67
2023/10/27 01:44:08;;;;;;;;;;;;;;;10.49;32.02;99938.59;5096338;28;20470;-67
2023/10/27 01:46:33;;;;;;;;;;;;;;;10.52;31.84;99938.19;5096009;28;19920;-67
2023/10/27 01:48:58;;;;;;;;;;;;;;;10.49;33.09;99927.03;5096156;28;19919;-67
2023/10/27 01:51:24;;;;;;;;;;;;;;;10.50;33.34;99928.72;5106598;28;19976;-67
2023/10/27 01:53:50;;;;;;;;;;;;;;;10.50;32.50;99931.41;5115870;28;19912;-67
2023/10/27 01:56:16;;;;;;;;;;;;;;;10.46;32.96;99933.66;5115960;28;20272;-67
2023/10/27 01:58:44;;;;;;;;;;;;;;;10.43;32.97;99921.47;5116050;28;19911;-67
2023/10/27 02:01:09;;;;;;;;;;;;;;;10.43;34.10;99921.47;5116092;28;19994;-67
2023/10/27 02:03:34;;;;;;;;;;;;;;;10.43;32.47;99917.97;5095423;28;20000;-68
2023/10/27 02:06:00;;;;;;;;;;;;;;;10.42;32.42;99924.38;5095278;28;19916;-67
2023/10/27 02:08:25;;;;;;;;;;;;;;;10.42;32.60;99916.31;5095321;28;19931;-67
2023/10/27 02:10:51;;;;;;;;;;;;;;;10.45;32.98;99915.88;5095511;28;19965;-67
2023/10/27 02:13:22;;;;;;;;;;;;;;;10.43;32.39;99912.59;5095847;28;19912;-67
2023/10/27 02:15:53;;;;;;;;;;;;;;;10.43;32.59;99907.22;5095544;28;19927;-67
2023/10/27 02:18:25;;;;;;;;;;;;;;;10.44;31.81;99904.34;5095469;28;20002;-68
2023/10/27 02:20:50;;;;;;;;;;;;;;;10.43;32.13;99909.91;5077108;28;20344;-68
2023/10/27 02:23:16;;;;;;;;;;;;;;;10.42;32.12;99905.59;5094902;28;19961;-67
2023/10/27 02:25:41;;;;;;;;;;;;;;;10.40;32.89;99903.09;5102134;28;20379;-67
2023/10/27 02:28:06;;;;;;;;;;;;;;;10.37;32.47;99905.38;5115288;28;19915;-68
2023/10/27 02:30:33;;;;;;;;;;;;;;;10.38;32.56;99901.63;5094739;28;19914;-67
2023/10/27 02:32:59;;;;;;;;;;;;;;;10.39;32.96;99897.94;5094968;28;20312;-67
2023/10/27 02:35:25;;;;;;;;;;;;;;;10.37;32.57;99900.00;5095281;28;19955;-67
2023/10/27 02:37:51;;;;;;;;;;;;;;;10.40;33.73;99899.56;5094934;28;20014;-68
2023/10/27 02:40:16;;;;;;;;;;;;;;;10.38;32.57;99896.25;5094706;28;20010;-68
2023/10/27 02:42:41;;;;;;;;;;;;;;;10.37;33.76;99897.31;5094657;28;19912;-68
2023/10/27 02:45:07;;;;;;;;;;;;;;;10.37;33.34;99892.75;5094738;28;19921;-67
2023/10/27 02:47:33;;;;;;;;;;;;;;;10.35;32.54;99896.69;5094479;28;20030;-67
2023/10/27 02:49:58;;;;;;;;;;;;;;;10.32;32.47;99897.09;5094529;28;19939;-67
2023/10/27 02:52:23;;;;;;;;;;;;;;;10.35;32.61;99894.00;5114095;28;19919;-66
2023/10/27 02:54:49;;;;;;;;;;;;;;;10.37;32.49;99891.94;5114768;28;19912;-67
2023/10/27 02:57:14;;;;;;;;;;;;;;;10.36;32.54;99888.41;5114652;28;19915;-67
2023/10/27 02:59:40;;;;;;;;;;;;;;;10.39;32.59;99890.69;5103927;28;20380;-67
2023/10/27 03:02:05;;;;;;;;;;;;;;;10.35;32.83;99891.34;5086384;28;19919;-68
2023/10/27 03:04:31;;;;;;;;;;;;;;;10.32;33.27;99884.50;5090309;28;20018;-67
2023/10/27 03:06:56;;;;;;;;;;;;;;;10.33;33.30;99885.34;5074257;28;20289;-67
2023/10/27 03:09:21;;;;;;;;;;;;;;;10.32;32.33;99889.06;5074135;28;19918;-68
2023/10/27 03:11:46;;;;;;;;;;;;;;;10.32;33.06;99887.19;5082635;28;19921;-66
2023/10/27 03:14:12;;;;;;;;;;;;;;;10.34;33.17;99887.78;5094511;28;19916;-67
2023/10/27 03:16:37;;;;;;;;;;;;;;;10.35;32.27;99877.91;5076041;28;20021;-67
2023/10/27 03:19:02;;;;;;;;;;;;;;;10.37;32.95;99875.84;5093596;28;19912;-67
2023/10/27 03:21:27;;;;;;;;;;;;;;;10.38;32.82;99874.78;5096785;28;19919;-67
2023/10/27 03:23:53;;;;;;;;;;;;;;;10.39;33.06;99876.47;5079348;28;19916;-67
2023/10/27 03:26:18;;;;;;;;;;;;;;;10.33;33.05;99872.75;5098041;28;20017;-68
2023/10/27 03:28:43;;;;;;;;;;;;;;;10.28;32.88;99870.63;5094116;28;19951;-68
2023/10/27 03:31:12;;;;;;;;;;;;;;;10.26;33.13;99872.69;5093939;28;19916;-68
2023/10/27 03:33:38;;;;;;;;;;;;;;;10.31;32.60;99868.59;5094187;28;19928;-68
2023/10/27 03:36:03;;;;;;;;;;;;;;;10.28;32.44;99867.94;5093841;28;20439;-68
2023/10/27 03:38:29;;;;;;;;;;;;;;;10.28;32.33;99869.81;5093754;28;20010;-68
2023/10/27 03:40:54;;;;;;;;;;;;;;;10.31;33.49;99871.28;5093636;28;19913;-68
2023/10/27 03:43:19;;;;;;;;;;;;;;;10.30;33.38;99869.63;5093635;28;20022;-68
2023/10/27 03:45:44;;;;;;;;;;;;;;;10.31;33.29;99868.59;5093755;28;19916;-68
2023/10/27 03:48:10;;;;;;;;;;;;;;;10.31;32.64;99866.75;5094007;28;19965;-67
2023/10/27 03:50:36;;;;;;;;;;;;;;;10.32;32.71;99868.41;5097964;28;20406;-67
2023/10/27 03:53:03;;;;;;;;;;;;;;;10.31;32.40;99869.44;5114334;28;19918;-67
2023/10/27 03:55:28;;;;;;;;;;;;;;;10.30;32.70;99869.63;5106392;28;19916;-67
2023/10/27 03:57:56;;;;;;;;;;;;;;;10.27;32.25;99868.19;5075121;28;20027;-68
2023/10/27 04:00:24;;;;;;;;;;;;;;;10.29;32.66;99868.78;5109135;28;19912;-67
2023/10/27 04:02:50;;;;;;;;;;;;;;;10.32;32.74;99871.06;5079739;28;19935;-68
2023/10/27 04:05:15;;;;;;;;;;;;;;;10.31;33.36;99866.75;5073060;28;20537;-68
2023/10/27 04:07:42;;;;;;;;;;;;;;;10.32;33.50;99868.41;5079128;28;19912;-68
2023/10/27 04:10:08;;;;;;;;;;;;;;;10.32;33.11;99864.91;5093429;28;19934;-68
2023/10/27 04:12:33;;;;;;;;;;;;;;;10.33;34.02;99863.88;5093836;28;19912;-68
2023/10/27 04:14:58;;;;;;;;;;;;;;;10.33;33.74;99863.88;5093691;28;19912;-68
2023/10/27 04:17:23;;;;;;;;;;;;;;;10.27;32.99;99860.13;5093628;28;19912;-67
2023/10/27 04:19:50;;;;;;;;;;;;;;;10.28;32.92;99865.25;5106988;28;20340;-68
2023/10/27 04:22:15;;;;;;;;;;;;;;;10.28;33.62;99862.59;5093416;28;19912;-67
2023/10/27 04:24:40;;;;;;;;;;;;;;;10.27;33.03;99860.13;5093582;28;19919;-68
2023/10/27 04:27:05;;;;;;;;;;;;;;;10.28;33.13;99865.25;5093029;28;19969;-67
2023/10/27 04:29:31;;;;;;;;;;;;;;;10.26;33.24;99870.03;5093515;28;19912;-67
2023/10/27 04:31:56;;;;;;;;;;;;;;;10.30;32.91;99862.38;5097028;28;20283;-68
2023/10/27 04:34:21;;;;;;;;;;;;;;;10.28;32.96;99861.75;5079664;28;19957;-68
2023/10/27 04:36:47;;;;;;;;;;;;;;;10.22;32.90;99858.03;5097969;28;20467;-67
2023/10/27 04:39:12;;;;;;;;;;;;;;;10.22;33.19;99859.91;5097387;28;19947;-68
2023/10/27 04:41:37;;;;;;;;;;;;;;;10.23;33.19;99857.03;5097325;28;20360;-67
2023/10/27 04:44:03;;;;;;;;;;;;;;;10.19;33.21;99866.50;5097004;28;20376;-67
2023/10/27 04:46:28;;;;;;;;;;;;;;;10.19;33.70;99857.63;5096945;28;20293;-67
2023/10/27 04:48:55;;;;;;;;;;;;;;;10.19;33.46;99869.19;5096994;28;20048;-67
2023/10/27 04:51:21;;;;;;;;;;;;;;;10.19;34.37;99857.63;5096594;28;20440;-67
2023/10/27 04:53:46;;;;;;;;;;;;;;;10.13;32.99;99861.97;5096390;28;20045;-68
2023/10/27 04:56:11;;;;;;;;;;;;;;;10.15;32.87;99856.41;5096983;28;20019;-67
2023/10/27 04:58:38;;;;;;;;;;;;;;;10.13;32.75;99856.59;5096900;28;19916;-67
2023/10/27 05:01:04;;;;;;;;;;;;;;;10.13;32.57;99856.59;5096876;28;19920;-67
2023/10/27 05:03:29;;;;;;;;;;;;;;;10.14;33.45;99863.63;5096593;28;19935;-67
2023/10/27 05:05:54;;;;;;;;;;;;;;;10.14;33.46;99860.09;5096606;28;19916;-67
2023/10/27 05:08:19;;;;;;;;;;;;;;;10.13;32.74;99861.97;5096614;28;20376;-67
2023/10/27 05:10:47;;;;;;;;;;;;;;;10.15;32.89;99857.22;5096168;28;19919;-67
2023/10/27 05:13:12;;;;;;;;;;;;;;;10.14;33.51;99860.94;5096739;27;19916;-67
2023/10/27 05:15:38;;;;;;;;;;;;;;;10.12;32.77;99860.31;5113062;28;20330;-67
2023/10/27 05:18:06;;;;;;;;;;;;;;;10.13;32.98;99858.47;5116905;28;19919;-67
2023/10/27 05:20:38;;;;;;;;;;;;;;;10.14;33.06;99854.72;5116978;28;20249;-67
2023/10/27 05:23:03;;;;;;;;;;;;;;;10.15;32.86;99856.41;5116972;28;19912;-67
2023/10/27 05:25:28;;;;;;;;;;;;;;;10.16;33.65;99853.50;5107504;28;19916;-67
2023/10/27 05:27:54;;;;;;;;;;;;;;;10.20;33.61;99853.94;5096351;28;19912;-67
2023/10/27 05:30:19;;;;;;;;;;;;;;;10.18;32.95;99856.81;5096164;28;19912;-67
2023/10/27 05:32:44;;;;;;;;;;;;;;;10.19;33.07;99852.25;5096089;28;19912;-67
2023/10/27 05:35:09;;;;;;;;;;;;;;;10.15;32.80;99857.22;5095969;28;19926;-66
2023/10/27 05:37:35;;;;;;;;;;;;;;;10.14;32.76;99852.06;5096247;28;19916;-66
2023/10/27 05:40:00;;;;;;;;;;;;;;;10.12;33.25;99856.81;5096147;28;20382;-67
2023/10/27 05:42:25;;;;;;;;;;;;;;;10.13;33.37;99859.28;5095601;28;19912;-67
2023/10/27 05:44:50;;;;;;;;;;;;;;;10.14;32.93;99855.59;5096031;28;19912;-67
2023/10/27 05:47:16;;;;;;;;;;;;;;;10.15;33.25;99859.91;5095847;28;19920;-67
2023/10/27 05:49:41;;;;;;;;;;;;;;;10.14;33.57;99858.25;5095891;28;19912;-67
2023/10/27 05:52:06;;;;;;;;;;;;;;;10.10;33.06;99865.06;5094309;28;19999;-67
2023/10/27 05:54:32;;;;;;;;;;;;;;;10.11;33.57;99866.72;5115479;28;19912;-66
2023/10/27 05:56:57;;;;;;;;;;;;;;;10.12;33.25;99873.72;5115963;28;19935;-67
2023/10/27 05:59:22;;;;;;;;;;;;;;;10.11;33.20;99874.75;5113200;28;20348;-67
2023/10/27 06:01:53;;;;;;;;;;;;;;;10.13;33.44;99878.06;5090295;28;19919;-67
2023/10/27 06:04:19;;;;;;;;;;;;;;;10.13;32.93;99880.75;5075209;28;19916;-66
2023/10/27 06:06:44;;;;;;;;;;;;;;;10.11;33.15;99877.44;5075527;28;20403;-67
2023/10/27 06:09:09;;;;;;;;;;;;;;;10.07;33.12;99878.91;5094400;28;19912;-67
2023/10/27 06:11:34;;;;;;;;;;;;;;;10.06;33.48;99886.09;5109209;28;19927;-67
2023/10/27 06:14:00;;;;;;;;;;;;;;;10.03;32.33;99883.84;5115729;28;19911;-66
2023/10/27 06:16:25;;;;;;;;;;;;;;;10.03;33.88;99885.72;5115529;28;19961;-67
2023/10/27 06:18:52;;;;;;;;;;;;;;;10.04;33.13;99887.34;5115751;28;19992;-67
2023/10/27 06:21:17;;;;;;;;;;;;;;;10.02;33.08;99887.53;5131596;27;20275;-67
2023/10/27 06:23:43;;;;;;;;;;;;;;;10.03;33.37;99889.22;5115979;28;19937;-67
2023/10/27 06:26:08;;;;;;;;;;;;;;;10.04;32.76;99887.34;5082469;28;20319;-67
2023/10/27 06:28:35;;;;;;;;;;;;;;;10.06;32.47;99896.00;5110981;28;19912;-67
2023/10/27 06:31:00;;;;;;;;;;;;;;;10.06;32.62;99890.66;5094974;28;19912;-67
2023/10/27 06:33:25;;;;;;;;;;;;;;;10.07;33.98;99892.31;5094921;28;19966;-67
2023/10/27 06:35:51;;;;;;;;;;;;;;;10.04;33.01;99896.22;5094724;28;19927;-68
2023/10/27 06:38:16;;;;;;;;;;;;;;;10.04;33.60;99901.56;5094406;28;20422;-67
2023/10/27 06:40:41;;;;;;;;;;;;;;;10.03;32.71;99899.13;5094819;28;19912;-67
2023/10/27 06:43:06;;;;;;;;;;;;;;;10.03;33.07;99905.31;5076688;28;19955;-67
2023/10/27 06:45:31;;;;;;;;;;;;;;;10.04;32.64;99901.56;5094742;28;19916;-64
2023/10/27 06:47:57;;;;;;;;;;;;;;;10.06;33.61;99906.75;5094799;28;19965;-64
2023/10/27 06:50:22;;;;;;;;;;;;;;;10.06;33.08;99902.19;5096776;28;19947;-63
2023/10/27 06:52:47;;;;;;;;;;;;;;;10.07;33.41;99911.09;5114137;28;19911;-64
2023/10/27 06:55:12;;;;;;;;;;;;;;;10.00;32.59;99911.06;5114559;28;19911;-64
2023/10/27 06:57:39;;;;;;;;;;;;;;;10.02;33.14;99905.50;5098334;28;19968;-64
2023/10/27 07:00:04;;;;;;;;;;;;;;;10.02;33.20;99914.38;5094636;28;20015;-64
2023/10/27 07:02:30;;;;;;;;;;;;;;;10.04;33.16;99916.84;5082903;28;20058;-63
2023/10/27 07:04:55;;;;;;;;;;;;;;;10.05;34.09;99915.84;5088942;28;19990;-63
2023/10/27 07:07:20;;;;;;;;;;;;;;;10.03;32.68;99910.66;5104570;28;19916;-64
2023/10/27 07:09:45;;;;;;;;;;;;;;;10.06;32.92;99917.47;5114473;28;20348;-64
2023/10/27 07:12:11;;;;;;;;;;;;;;;10.01;32.54;99911.88;5114608;28;20277;-65
2023/10/27 07:14:36;;;;;;;;;;;;;;;9.98;32.50;99915.00;5114927;28;19966;-64
2023/10/27 07:17:02;;;;;;;;;;;;;;;9.99;32.86;99917.47;5113206;28;19935;-63
2023/10/27 07:19:27;;;;;;;;;;;;;;;10.06;32.83;99923.66;5113389;28;20267;-64
2023/10/27 07:21:53;;;;;;;;;;;;;;;10.08;33.81;99916.25;5113255;28;20380;-64
2023/10/27 07:24:18;;;;;;;;;;;;;;;10.14;32.57;99914.59;5113863;28;19912;-64
2023/10/27 07:26:43;;;;;;;;;;;;;;;10.21;32.29;99917.28;5093817;28;19974;-64
2023/10/27 07:29:09;;;;;;;;;;;;;;;10.20;32.25;99913.78;5093332;28;19919;-64
2023/10/27 07:31:34;;;;;;;;;;;;;;;10.21;32.76;99922.66;5093413;28;19916;-64
2023/10/27 07:33:59;;;;;;;;;;;;;;;10.23;32.68;99913.38;5093843;28;19920;-64
2023/10/27 07:36:24;;;;;;;;;;;;;;;10.28;32.84;99915.44;5094004;28;19923;-64
2023/10/27 07:38:50;;;;;;;;;;;;;;;10.25;32.33;99913.16;5093734;28;19935;-64
2023/10/27 07:41:15;;;;;;;;;;;;;;;10.26;32.48;99918.31;5093824;28;19922;-64
2023/10/27 07:43:40;;;;;;;;;;;;;;;10.29;32.38;99914.41;5093683;28;19951;-64
2023/10/27 07:46:05;;;;;;;;;;;;;;;10.32;32.03;99916.72;5093416;28;20484;-64
2023/10/27 07:48:31;;;;;;;;;;;;;;;10.28;32.25;99910.88;5093818;28;19919;-64
2023/10/27 07:50:57;;;;;;;;;;;;;;;10.34;31.64;99913.81;5100899;28;19997;-64
2023/10/27 07:53:26;;;;;;;;;;;;;;;10.33;31.05;99913.00;5102088;28;19912;-64
2023/10/27 07:55:52;;;;;;;;;;;;;;;10.33;31.32;99918.38;5092968;28;19966;-63
2023/10/27 07:58:17;;;;;;;;;;;;;;;10.37;32.04;99918.78;5093524;28;20261;-63
2023/10/27 08:00:43;;;;;;;;;;;;;;;10.38;32.31;99920.44;5093391;28;20273;-64
2023/10/27 08:03:09;;;;;;;;;;;;;;;10.34;31.51;99920.00;5099507;28;20029;-65
2023/10/27 08:05:34;;;;;;;;;;;;;;;10.31;32.37;99919.59;5113501;28;19952;-64
2023/10/27 08:08:03;;;;;;;;;;;;;;;10.33;30.93;99921.06;5114174;28;19912;-65
2023/10/27 08:10:28;;;;;;;;;;;;;;;10.35;31.70;99910.13;5113791;28;19942;-64
2023/10/27 08:12:53;;;;;;;;;;;;;;;10.37;31.89;99914.25;5095471;28;20345;-63
2023/10/27 08:15:19;;;;;;;;;;;;;;;10.40;31.55;99926.41;5113906;28;19911;-63
2023/10/27 08:17:44;;;;;;;;;;;;;;;10.41;31.79;99917.34;5113668;28;19919;-64
2023/10/27 08:20:10;;;;;;;;;;;;;;;10.42;30.94;99917.13;5113747;28;19964;-64
2023/10/27 08:22:36;;;;;;;;;;;;;;;10.43;31.56;99920.63;5113935;28;19915;-65
2023/10/27 08:25:02;;;;;;;;;;;;;;;10.42;31.32;99924.38;5108309;28;19919;-64
2023/10/27 08:27:27;;;;;;;;;;;;;;;10.42;31.75;99927.88;5093246;28;20008;-64
2023/10/27 08:29:53;;;;;;;;;;;;;;;10.44;31.06;99925.00;5093213;28;19939;-64
2023/10/27 08:32:18;;;;;;;;;;;;;;;10.46;32.01;99926.41;5093137;28;19912;-64
2023/10/27 08:34:43;;;;;;;;;;;;;;;10.44;31.49;99927.69;5093808;28;20005;-64
2023/10/27 08:37:09;;;;;;;;;;;;;;;10.44;32.19;99933.03;5093375;28;20380;-64
2023/10/27 08:39:34;;;;;;;;;;;;;;;10.49;32.52;99922.50;5093291;28;20315;-64
2023/10/27 08:42:00;;;;;;;;;;;;;;;10.51;33.18;99931.19;5093050;28;19912;-64
2023/10/27 08:44:26;;;;;;;;;;;;;;;10.53;31.72;99939.88;5093312;28;20415;-64
2023/10/27 08:46:54;;;;;;;;;;;;;;;10.55;31.38;99932.44;5093252;28;20014;-64
2023/10/27 08:49:20;;;;;;;;;;;;;;;10.55;32.01;99935.09;5093010;28;19912;-63
2023/10/27 08:51:46;;;;;;;;;;;;;;;10.59;30.87;99930.97;5107061;28;19919;-64
2023/10/27 08:54:11;;;;;;;;;;;;;;;10.59;32.06;99933.66;5112814;28;20359;-63
2023/10/27 08:56:37;;;;;;;;;;;;;;;10.61;31.93;99928.91;5105044;28;20315;-63
2023/10/27 08:59:03;;;;;;;;;;;;;;;10.65;31.45;99930.13;5096331;28;19911;-63
2023/10/27 09:01:28;;;;;;;;;;;;;;;10.62;30.60;99927.03;5110829;28;19912;-62
2023/10/27 09:04:10;;;;;;;;;;;;;;;10.67;31.23;99934.50;5092825;28;19919;-63
2023/10/27 09:06:37;;;;;;;;;;;;;;;10.72;33.05;99934.69;5092948;28;19920;-63
2023/10/27 09:09:02;;;;;;;;;;;;;;;10.73;30.96;99936.34;5093134;28;19919;-63
2023/10/27 09:11:28;;;;;;;;;;;;;;;10.73;31.54;99937.16;5092643;28;20320;-63
2023/10/27 09:13:53;;;;;;;;;;;;;;;10.75;31.01;99940.44;5092951;28;20356;-64
2023/10/27 09:16:25;;;;;;;;;;;;;;;10.77;32.64;99942.94;5094320;28;19919;-64
2023/10/27 09:18:51;;;;;;;;;;;;;;;10.76;31.62;99939.44;5112179;28;19919;-64
2023/10/27 09:21:28;;;;;;;;;;;;;;;10.75;31.29;99940.44;5096786;28;19920;-63
2023/10/27 09:23:53;;;;;;;;;;;;;;;10.74;31.48;99946.88;5078443;28;19916;-63
2023/10/27 09:26:18;;;;;;;;;;;;;;;10.63;31.13;99951.00;5096273;28;19916;-63
2023/10/27 09:28:44;;;;;;;;;;;;;;;10.67;31.92;99945.22;5096544;28;19971;-63
2023/10/27 09:31:09;;;;;;;;;;;;;;;10.72;30.72;99946.25;5096492;28;19947;-63
2023/10/27 09:33:34;;;;;;;;;;;;;;;10.76;31.86;99944.81;5095956;28;20250;-64
2023/10/27 09:36:02;;;;;;;;;;;;;;;10.84;31.57;99939.19;5096153;28;19985;-64
2023/10/27 09:38:27;;;;;;;;;;;;;;;10.88;32.07;99938.78;5096587;28;19912;-64
2023/10/27 09:40:56;;;;;;;;;;;;;;;10.85;31.68;99942.75;5096307;28;19965;-64
2023/10/27 09:43:23;;;;;;;;;;;;;;;10.88;32.21;99938.78;5095913;28;20288;-64
2023/10/27 09:45:55;;;;;;;;;;;;;;;10.85;31.71;99934.69;5095684;28;20261;-66
2023/10/27 09:48:27;;;;;;;;;;;;;;;10.94;31.88;99941.47;5095898;28;19912;-64
2023/10/27 09:50:55;;;;;;;;;;;;;;;10.90;31.70;99931.34;5102525;28;19919;-63
2023/10/27 09:53:23;;;;;;;;;;;;;;;10.90;30.52;99925.97;5103606;28;19912;-64
2023/10/27 09:55:49;;;;;;;;;;;;;;;10.94;32.17;99936.13;5101667;27;19919;-65
2023/10/27 09:58:14;;;;;;;;;;;;;;;10.92;31.52;99930.13;5096162;28;20456;-64
2023/10/27 10:00:41;;;;;;;;;;;;;;;10.94;30.40;99922.69;5096021;28;20429;-63
2023/10/27 10:03:07;;;;;;;;;;;;;;;10.93;30.55;99929.06;5095673;28;19916;-64
2023/10/27 10:05:51;;;;;;;;;;;;;;;10.90;31.47;99928.66;5095650;28;19923;-62
2023/10/27 10:08:18;;;;;;;;;;;;;;;10.95;31.14;99927.00;5095476;28;19917;-63
2023/10/27 10:10:44;;;;;;;;;;;;;;;11.02;30.84;99919.75;5095417;28;20015;-63
2023/10/27 10:13:19;;;;;;;;;;;;;;;10.98;31.78;99923.91;5095536;28;20024;-63
2023/10/27 10:15:45;;;;;;;;;;;;;;;11.02;31.17;99916.25;5095736;28;20018;-65
2023/10/27 10:18:20;;;;;;;;;;;;;;;11.06;31.72;99913.97;5095267;28;19912;-65
2023/10/27 10:20:45;;;;;;;;;;;;;;;11.10;32.16;99909.81;5095145;28;19912;-64
2023/10/27 10:23:17;;;;;;;;;;;;;;;11.10;30.58;99912.50;5095340;28;19912;-64
2023/10/27 10:25:50;;;;;;;;;;;;;;;11.11;32.95;99912.31;5094900;28;20011;-64
2023/10/27 10:28:18;;;;;;;;;;;;;;;11.17;32.17;99916.81;5093944;28;19912;-64
2023/10/27 10:30:44;;;;;;;;;;;;;;;11.20;31.04;99915.59;5094692;28;19922;-63
2023/10/27 10:33:16;;;;;;;;;;;;;;;11.21;30.72;99914.53;5095041;28;19912;-63
2023/10/27 10:35:46;;;;;;;;;;;;;;;11.23;31.44;99909.78;5095000;28;19916;-65
2023/10/27 10:38:23;;;;;;;;;;;;;;;11.22;32.63;99916.22;5095326;28;19913;-64
2023/10/27 10:40:55;;;;;;;;;;;;;;;11.22;30.42;99914.34;5094671;28;19919;-64
2023/10/27 10:43:24;;;;;;;;;;;;;;;11.17;30.73;99907.94;5094540;28;19958;-64
2023/10/27 10:45:56;;;;;;;;;;;;;;;11.22;30.90;99910.84;5110523;28;19916;-64
2023/10/27 10:48:22;;;;;;;;;;;;;;;11.26;30.69;99908.56;5094939;28;19919;-63
2023/10/27 10:50:48;;;;;;;;;;;;;;;11.29;30.99;99914.34;5100426;28;20363;-64
2023/10/27 10:53:17;;;;;;;;;;;;;;;11.26;30.36;99912.06;5115007;28;19915;-64
2023/10/27 10:55:45;;;;;;;;;;;;;;;11.25;30.51;99913.06;5113995;28;20363;-64
2023/10/27 10:58:18;;;;;;;;;;;;;;;11.28;31.09;99911.84;5094602;28;20318;-64
2023/10/27 11:00:44;;;;;;;;;;;;;;;11.29;31.33;99910.78;5094693;28;19912;-64
2023/10/27 11:03:09;;;;;;;;;;;;;;;11.31;32.16;99911.41;5094239;28;19957;-64
2023/10/27 11:05:35;;;;;;;;;;;;;;;11.34;30.97;99913.69;5094323;28;19916;-64
2023/10/27 11:08:01;;;;;;;;;;;;;;;11.32;31.46;99916.56;5094324;28;20002;-64
2023/10/27 11:10:26;;;;;;;;;;;;;;;11.33;30.28;99912.00;5094149;28;20445;-63
2023/10/27 11:12:52;;;;;;;;;;;;;;;11.35;30.21;99904.59;5094467;28;19912;-63
2023/10/27 11:15:36;;;;;;;;;;;;;;;11.29;30.16;99900.03;5094272;28;19912;-64
2023/10/27 11:18:10;;;;;;;;;;;;;;;11.29;31.52;99902.72;5076030;28;19977;-64
2023/10/27 11:20:35;;;;;;;;;;;;;;;11.31;32.28;99901.50;5094444;28;19919;-63
2023/10/27 11:23:08;;;;;;;;;;;;;;;11.29;30.22;99903.56;5075758;28;20254;-64
2023/10/27 11:25:33;;;;;;;;;;;;;;;11.36;30.56;99908.91;5093698;28;19964;-64
2023/10/27 11:28:17;;;;;;;;;;;;;;;11.34;30.59;99911.81;5094034;28;19912;-64
2023/10/27 11:30:42;;;;;;;;;;;;;;;11.33;30.87;99912.88;5094103;28;19913;-64
2023/10/27 11:33:08;;;;;;;;;;;;;;;11.43;30.90;99915.09;5094278;28;19912;-65
2023/10/27 11:35:44;;;;;;;;;;;;;;;11.46;30.46;99909.31;5093949;28;20198;-64
2023/10/27 11:38:09;;;;;;;;;;;;;;;11.43;30.49;99902.47;5093521;28;19919;-64
2023/10/27 11:40:34;;;;;;;;;;;;;;;11.57;30.88;99905.09;5093453;28;19913;-65
2023/10/27 11:43:00;;;;;;;;;;;;;;;11.57;30.90;99913.16;5093652;28;20265;-64
2023/10/27 11:45:25;;;;;;;;;;;;;;;11.66;31.29;99908.38;5093327;28;19919;-64
2023/10/27 11:47:50;;;;;;;;;;;;;;;11.73;31.10;99907.28;5097094;28;20431;-65
2023/10/27 11:50:15;;;;;;;;;;;;;;;11.73;30.25;99917.25;5105083;28;20441;-63
2023/10/27 11:52:40;;;;;;;;;;;;;;;11.82;30.77;99911.38;5114290;28;19916;-65
2023/10/27 11:55:06;;;;;;;;;;;;;;;11.81;30.67;99916.97;5113385;28;19915;-63
2023/10/27 11:57:31;;;;;;;;;;;;;;;11.91;32.49;99908.50;5113760;28;19919;-63
2023/10/27 11:59:56;;;;;;;;;;;;;;;11.92;31.27;99910.97;5113697;28;20339;-64
2023/10/27 12:02:22;;;;;;;;;;;;;;;11.97;29.97;99913.00;5103661;28;19912;-64
2023/10/27 12:04:47;;;;;;;;;;;;;;;11.97;30.77;99908.44;5093207;28;19912;-63
2023/10/27 12:07:14;;;;;;;;;;;;;;;12.04;30.40;99910.28;5093248;28;19916;-65
2023/10/27 12:09:39;;;;;;;;;;;;;;;12.06;29.34;99913.56;5093338;28;19966;-65
2023/10/27 12:12:06;;;;;;;;;;;;;;;12.11;31.37;99901.13;5092945;28;19978;-64
2023/10/27 12:14:32;;;;;;;;;;;;;;;12.14;30.34;99897.16;5093213;28;19912;-65
2023/10/27 12:16:57;;;;;;;;;;;;;;;12.18;30.10;99909.97;5093430;28;20054;-64
2023/10/27 12:19:22;;;;;;;;;;;;;;;12.24;30.41;99896.66;5093378;28;20361;-64
2023/10/27 12:21:48;;;;;;;;;;;;;;;12.13;29.32;99901.72;5092980;28;20394;-64
2023/10/27 12:24:15;;;;;;;;;;;;;;;12.17;30.26;99905.63;5092969;28;19920;-64
2023/10/27 12:26:40;;;;;;;;;;;;;;;12.14;30.17;99905.22;5092991;28;20049;-64
2023/10/27 12:29:08;;;;;;;;;;;;;;;12.14;31.36;99906.03;5093112;28;20007;-66
2023/10/27 12:31:33;;;;;;;;;;;;;;;12.11;30.61;99903.81;5075172;28;19919;-64
2023/10/27 12:33:59;;;;;;;;;;;;;;;12.08;32.00;99904.22;5093296;28;20352;-63
2023/10/27 12:36:24;;;;;;;;;;;;;;;12.06;29.58;99911.69;5093080;28;20356;-64
2023/10/27 12:38:50;;;;;;;;;;;;;;;12.03;31.62;99912.13;5093177;28;20283;-64
2023/10/27 12:41:18;;;;;;;;;;;;;;;11.98;29.98;99902.03;5093276;28;19939;-64
2023/10/27 12:43:43;;;;;;;;;;;;;;;11.91;29.51;99903.94;5093573;28;19912;-64